sensor_id;sensor_type;location;lat;lon;timestamp;P1;durP1;ratioP1;P2;durP2;ratioP2
26536;SDS011;14204;51.262;5.488;2023-04-15T00:00:36;10.32;;;6.05;;
26536;SDS011;14204;51.262;5.488;2023-04-15T00:03:02;7.45;;;5.32;;
26536;SDS011;14204;51.262;5.488;2023-04-15T00:05:29;8.77;;;5.25;;
26536;SDS011;14204;51.262;5.488;2023-04-15T00:07:55;10.10;;;5.07;;
26536;SDS011;14204;51.262;5.488;2023-04-15T00:10:23;10.75;;;5.35;;
26536;SDS011;14204;51.262;5.488;2023-04-15T00:12:48;9.02;;;4.50;;
26536;SDS011;14204;51.262;5.488;2023-04-15T00:15:15;6.57;;;3.80;;
26536;SDS011;14204;51.262;5.488;2023-04-15T00:17:41;8.63;;;4.05;;
26536;SDS011;14204;51.262;5.488;2023-04-15T00:20:07;9.18;;;4.38;;
26536;SDS011;14204;51.262;5.488;2023-04-15T00:22:33;9.02;;;4.50;;
26536;SDS011;14204;51.262;5.488;2023-04-15T00:24:59;8.48;;;4.82;;
26536;SDS011;14204;51.262;5.488;2023-04-15T00:27:25;7.72;;;4.72;;
26536;SDS011;14204;51.262;5.488;2023-04-15T00:29:50;9.80;;;4.82;;
26536;SDS011;14204;51.262;5.488;2023-04-15T00:32:16;10.15;;;5.65;;
26536;SDS011;14204;51.262;5.488;2023-04-15T00:34:42;10.32;;;5.85;;
26536;SDS011;14204;51.262;5.488;2023-04-15T00:37:08;12.25;;;4.63;;
26536;SDS011;14204;51.262;5.488;2023-04-15T00:39:34;8.25;;;5.07;;
26536;SDS011;14204;51.262;5.488;2023-04-15T00:42:00;8.20;;;5.05;;
26536;SDS011;14204;51.262;5.488;2023-04-15T00:44:28;8.43;;;4.43;;
26536;SDS011;14204;51.262;5.488;2023-04-15T00:46:53;8.88;;;4.88;;
26536;SDS011;14204;51.262;5.488;2023-04-15T00:49:19;11.52;;;4.22;;
26536;SDS011;14204;51.262;5.488;2023-04-15T00:51:45;11.45;;;5.05;;
26536;SDS011;14204;51.262;5.488;2023-04-15T00:54:11;11.07;;;4.93;;
26536;SDS011;14204;51.262;5.488;2023-04-15T00:56:37;9.57;;;6.03;;
26536;SDS011;14204;51.262;5.488;2023-04-15T00:59:03;9.65;;;5.75;;
26536;SDS011;14204;51.262;5.488;2023-04-15T01:01:32;10.75;;;5.80;;
26536;SDS011;14204;51.262;5.488;2023-04-15T01:03:59;9.57;;;5.25;;
26536;SDS011;14204;51.262;5.488;2023-04-15T01:06:25;7.22;;;4.50;;
26536;SDS011;14204;51.262;5.488;2023-04-15T01:08:52;12.43;;;5.72;;
26536;SDS011;14204;51.262;5.488;2023-04-15T01:11:21;10.25;;;4.57;;
26536;SDS011;14204;51.262;5.488;2023-04-15T01:13:48;9.40;;;5.25;;
26536;SDS011;14204;51.262;5.488;2023-04-15T01:16:16;10.75;;;4.97;;
26536;SDS011;14204;51.262;5.488;2023-04-15T01:18:42;11.32;;;5.40;;
26536;SDS011;14204;51.262;5.488;2023-04-15T01:21:08;13.93;;;5.75;;
26536;SDS011;14204;51.262;5.488;2023-04-15T01:23:35;10.48;;;5.90;;
26536;SDS011;14204;51.262;5.488;2023-04-15T01:26:05;8.68;;;5.45;;
26536;SDS011;14204;51.262;5.488;2023-04-15T01:28:34;8.57;;;6.30;;
26536;SDS011;14204;51.262;5.488;2023-04-15T01:31:08;11.32;;;5.63;;
26536;SDS011;14204;51.262;5.488;2023-04-15T01:33:35;10.38;;;5.43;;
26536;SDS011;14204;51.262;5.488;2023-04-15T01:36:02;11.32;;;6.05;;
26536;SDS011;14204;51.262;5.488;2023-04-15T01:38:29;6.65;;;5.32;;
26536;SDS011;14204;51.262;5.488;2023-04-15T01:40:56;7.60;;;5.97;;
26536;SDS011;14204;51.262;5.488;2023-04-15T01:43:22;9.40;;;6.18;;
26536;SDS011;14204;51.262;5.488;2023-04-15T01:45:47;13.25;;;6.18;;
26536;SDS011;14204;51.262;5.488;2023-04-15T01:48:13;10.10;;;5.97;;
26536;SDS011;14204;51.262;5.488;2023-04-15T01:50:39;11.50;;;6.60;;
26536;SDS011;14204;51.262;5.488;2023-04-15T01:53:05;11.65;;;6.28;;
26536;SDS011;14204;51.262;5.488;2023-04-15T01:55:30;14.65;;;6.50;;
26536;SDS011;14204;51.262;5.488;2023-04-15T01:57:56;11.45;;;6.00;;
26536;SDS011;14204;51.262;5.488;2023-04-15T02:00:22;6.82;;;4.88;;
26536;SDS011;14204;51.262;5.488;2023-04-15T02:02:48;13.00;;;6.40;;
26536;SDS011;14204;51.262;5.488;2023-04-15T02:05:14;12.77;;;6.10;;
26536;SDS011;14204;51.262;5.488;2023-04-15T02:07:41;9.43;;;6.10;;
26536;SDS011;14204;51.262;5.488;2023-04-15T02:10:07;14.20;;;6.53;;
26536;SDS011;14204;51.262;5.488;2023-04-15T02:12:34;12.75;;;6.75;;
26536;SDS011;14204;51.262;5.488;2023-04-15T02:15:00;14.15;;;6.85;;
26536;SDS011;14204;51.262;5.488;2023-04-15T02:17:26;7.60;;;5.68;;
26536;SDS011;14204;51.262;5.488;2023-04-15T02:19:51;13.75;;;6.50;;
26536;SDS011;14204;51.262;5.488;2023-04-15T02:22:17;9.32;;;4.95;;
26536;SDS011;14204;51.262;5.488;2023-04-15T02:24:43;10.15;;;4.95;;
26536;SDS011;14204;51.262;5.488;2023-04-15T02:27:10;9.45;;;5.72;;
26536;SDS011;14204;51.262;5.488;2023-04-15T02:29:40;9.70;;;6.00;;
26536;SDS011;14204;51.262;5.488;2023-04-15T02:32:07;9.13;;;5.70;;
26536;SDS011;14204;51.262;5.488;2023-04-15T02:34:32;8.32;;;5.75;;
26536;SDS011;14204;51.262;5.488;2023-04-15T02:36:58;8.63;;;5.40;;
26536;SDS011;14204;51.262;5.488;2023-04-15T02:39:24;10.13;;;6.80;;
26536;SDS011;14204;51.262;5.488;2023-04-15T02:41:49;10.98;;;6.00;;
26536;SDS011;14204;51.262;5.488;2023-04-15T02:44:16;11.73;;;6.05;;
26536;SDS011;14204;51.262;5.488;2023-04-15T02:46:46;14.07;;;5.60;;
26536;SDS011;14204;51.262;5.488;2023-04-15T02:49:16;10.73;;;5.65;;
26536;SDS011;14204;51.262;5.488;2023-04-15T02:51:42;8.98;;;6.72;;
26536;SDS011;14204;51.262;5.488;2023-04-15T02:54:11;11.80;;;6.97;;
26536;SDS011;14204;51.262;5.488;2023-04-15T02:56:37;10.13;;;5.85;;
26536;SDS011;14204;51.262;5.488;2023-04-15T02:59:02;10.85;;;6.28;;
26536;SDS011;14204;51.262;5.488;2023-04-15T03:01:28;11.95;;;6.95;;
26536;SDS011;14204;51.262;5.488;2023-04-15T03:03:54;15.43;;;7.38;;
26536;SDS011;14204;51.262;5.488;2023-04-15T03:06:20;10.60;;;6.78;;
26536;SDS011;14204;51.262;5.488;2023-04-15T03:08:45;11.85;;;7.00;;
26536;SDS011;14204;51.262;5.488;2023-04-15T03:11:11;10.02;;;6.28;;
26536;SDS011;14204;51.262;5.488;2023-04-15T03:13:38;8.10;;;5.88;;
26536;SDS011;14204;51.262;5.488;2023-04-15T03:16:06;10.23;;;6.70;;
26536;SDS011;14204;51.262;5.488;2023-04-15T03:18:31;12.13;;;6.60;;
26536;SDS011;14204;51.262;5.488;2023-04-15T03:20:57;15.38;;;6.63;;
26536;SDS011;14204;51.262;5.488;2023-04-15T03:23:23;12.13;;;6.60;;
26536;SDS011;14204;51.262;5.488;2023-04-15T03:25:49;12.23;;;6.80;;
26536;SDS011;14204;51.262;5.488;2023-04-15T03:28:15;18.63;;;8.57;;
26536;SDS011;14204;51.262;5.488;2023-04-15T03:30:40;11.50;;;7.45;;
26536;SDS011;14204;51.262;5.488;2023-04-15T03:33:06;9.85;;;6.45;;
26536;SDS011;14204;51.262;5.488;2023-04-15T03:35:32;12.93;;;7.35;;
26536;SDS011;14204;51.262;5.488;2023-04-15T03:37:58;11.65;;;7.00;;
26536;SDS011;14204;51.262;5.488;2023-04-15T03:40:24;10.90;;;7.20;;
26536;SDS011;14204;51.262;5.488;2023-04-15T03:42:51;13.65;;;8.07;;
26536;SDS011;14204;51.262;5.488;2023-04-15T03:45:16;14.75;;;8.35;;
26536;SDS011;14204;51.262;5.488;2023-04-15T03:47:42;16.92;;;8.63;;
26536;SDS011;14204;51.262;5.488;2023-04-15T03:50:07;11.38;;;8.30;;
26536;SDS011;14204;51.262;5.488;2023-04-15T03:52:33;13.70;;;9.73;;
26536;SDS011;14204;51.262;5.488;2023-04-15T03:54:59;13.48;;;9.68;;
26536;SDS011;14204;51.262;5.488;2023-04-15T03:57:25;13.82;;;8.75;;
26536;SDS011;14204;51.262;5.488;2023-04-15T03:59:51;13.45;;;8.85;;
26536;SDS011;14204;51.262;5.488;2023-04-15T04:02:17;17.95;;;10.20;;
26536;SDS011;14204;51.262;5.488;2023-04-15T04:04:42;15.93;;;11.40;;
26536;SDS011;14204;51.262;5.488;2023-04-15T04:07:08;18.67;;;11.13;;
26536;SDS011;14204;51.262;5.488;2023-04-15T04:09:39;20.38;;;11.95;;
26536;SDS011;14204;51.262;5.488;2023-04-15T04:12:06;19.23;;;11.23;;
26536;SDS011;14204;51.262;5.488;2023-04-15T04:14:31;17.00;;;11.55;;
26536;SDS011;14204;51.262;5.488;2023-04-15T04:16:57;18.20;;;11.07;;
26536;SDS011;14204;51.262;5.488;2023-04-15T04:19:23;18.63;;;11.20;;
26536;SDS011;14204;51.262;5.488;2023-04-15T04:21:48;18.52;;;10.90;;
26536;SDS011;14204;51.262;5.488;2023-04-15T04:24:14;18.80;;;11.85;;
26536;SDS011;14204;51.262;5.488;2023-04-15T04:26:40;16.73;;;10.32;;
26536;SDS011;14204;51.262;5.488;2023-04-15T04:29:05;15.30;;;9.02;;
26536;SDS011;14204;51.262;5.488;2023-04-15T04:31:31;17.80;;;11.88;;
26536;SDS011;14204;51.262;5.488;2023-04-15T04:33:57;16.73;;;11.98;;
26536;SDS011;14204;51.262;5.488;2023-04-15T04:36:23;19.65;;;12.80;;
26536;SDS011;14204;51.262;5.488;2023-04-15T04:38:48;20.13;;;12.80;;
26536;SDS011;14204;51.262;5.488;2023-04-15T04:41:14;25.33;;;14.95;;
26536;SDS011;14204;51.262;5.488;2023-04-15T04:43:40;22.90;;;16.60;;
26536;SDS011;14204;51.262;5.488;2023-04-15T04:46:06;24.27;;;16.10;;
26536;SDS011;14204;51.262;5.488;2023-04-15T04:48:32;22.52;;;16.33;;
26536;SDS011;14204;51.262;5.488;2023-04-15T04:50:57;24.08;;;16.77;;
26536;SDS011;14204;51.262;5.488;2023-04-15T04:53:23;23.48;;;15.60;;
26536;SDS011;14204;51.262;5.488;2023-04-15T04:55:49;23.00;;;15.57;;
26536;SDS011;14204;51.262;5.488;2023-04-15T04:58:15;30.15;;;18.00;;
26536;SDS011;14204;51.262;5.488;2023-04-15T05:00:41;22.83;;;16.38;;
26536;SDS011;14204;51.262;5.488;2023-04-15T05:03:06;28.67;;;18.20;;
26536;SDS011;14204;51.262;5.488;2023-04-15T05:05:32;26.27;;;16.48;;
26536;SDS011;14204;51.262;5.488;2023-04-15T05:08:00;27.05;;;19.10;;
26536;SDS011;14204;51.262;5.488;2023-04-15T05:10:26;30.98;;;17.52;;
26536;SDS011;14204;51.262;5.488;2023-04-15T05:12:52;24.98;;;17.38;;
26536;SDS011;14204;51.262;5.488;2023-04-15T05:15:18;36.13;;;17.63;;
26536;SDS011;14204;51.262;5.488;2023-04-15T05:17:43;23.05;;;16.15;;
26536;SDS011;14204;51.262;5.488;2023-04-15T05:20:09;26.85;;;17.25;;
26536;SDS011;14204;51.262;5.488;2023-04-15T05:22:35;29.70;;;18.02;;
26536;SDS011;14204;51.262;5.488;2023-04-15T05:25:01;27.08;;;17.80;;
26536;SDS011;14204;51.262;5.488;2023-04-15T05:27:27;25.50;;;18.02;;
26536;SDS011;14204;51.262;5.488;2023-04-15T05:29:53;27.42;;;18.58;;
26536;SDS011;14204;51.262;5.488;2023-04-15T05:32:19;25.55;;;17.33;;
26536;SDS011;14204;51.262;5.488;2023-04-15T05:34:44;24.13;;;16.92;;
26536;SDS011;14204;51.262;5.488;2023-04-15T05:37:10;30.17;;;17.58;;
26536;SDS011;14204;51.262;5.488;2023-04-15T05:39:36;25.40;;;16.13;;
26536;SDS011;14204;51.262;5.488;2023-04-15T05:42:01;26.35;;;17.42;;
26536;SDS011;14204;51.262;5.488;2023-04-15T05:44:27;24.35;;;17.75;;
26536;SDS011;14204;51.262;5.488;2023-04-15T05:46:53;29.58;;;17.05;;
26536;SDS011;14204;51.262;5.488;2023-04-15T05:49:18;27.15;;;17.23;;
26536;SDS011;14204;51.262;5.488;2023-04-15T05:51:46;29.13;;;17.45;;
26536;SDS011;14204;51.262;5.488;2023-04-15T05:54:11;26.38;;;15.95;;
26536;SDS011;14204;51.262;5.488;2023-04-15T05:56:37;26.52;;;17.60;;
26536;SDS011;14204;51.262;5.488;2023-04-15T05:59:03;22.48;;;16.52;;
26536;SDS011;14204;51.262;5.488;2023-04-15T06:01:28;22.98;;;15.55;;
26536;SDS011;14204;51.262;5.488;2023-04-15T06:03:54;21.60;;;15.52;;
26536;SDS011;14204;51.262;5.488;2023-04-15T06:06:20;27.33;;;16.67;;
26536;SDS011;14204;51.262;5.488;2023-04-15T06:08:46;26.15;;;16.05;;
26536;SDS011;14204;51.262;5.488;2023-04-15T06:11:12;25.65;;;16.30;;
26536;SDS011;14204;51.262;5.488;2023-04-15T06:13:37;27.02;;;16.92;;
26536;SDS011;14204;51.262;5.488;2023-04-15T06:16:03;27.73;;;15.95;;
26536;SDS011;14204;51.262;5.488;2023-04-15T06:18:29;29.90;;;18.15;;
26536;SDS011;14204;51.262;5.488;2023-04-15T06:20:54;27.70;;;17.40;;
26536;SDS011;14204;51.262;5.488;2023-04-15T06:23:20;22.33;;;14.68;;
26536;SDS011;14204;51.262;5.488;2023-04-15T06:25:46;24.52;;;14.70;;
26536;SDS011;14204;51.262;5.488;2023-04-15T06:28:12;25.73;;;16.17;;
26536;SDS011;14204;51.262;5.488;2023-04-15T06:30:37;24.27;;;15.68;;
26536;SDS011;14204;51.262;5.488;2023-04-15T06:33:04;24.85;;;15.27;;
26536;SDS011;14204;51.262;5.488;2023-04-15T06:35:30;21.95;;;16.25;;
26536;SDS011;14204;51.262;5.488;2023-04-15T06:37:56;19.77;;;14.50;;
26536;SDS011;14204;51.262;5.488;2023-04-15T06:40:21;22.63;;;14.63;;
26536;SDS011;14204;51.262;5.488;2023-04-15T06:42:47;26.77;;;15.65;;
26536;SDS011;14204;51.262;5.488;2023-04-15T06:45:13;26.08;;;15.95;;
26536;SDS011;14204;51.262;5.488;2023-04-15T06:47:38;22.77;;;15.45;;
26536;SDS011;14204;51.262;5.488;2023-04-15T06:50:05;24.15;;;15.90;;
26536;SDS011;14204;51.262;5.488;2023-04-15T06:52:31;21.95;;;16.05;;
26536;SDS011;14204;51.262;5.488;2023-04-15T06:54:57;22.40;;;15.10;;
26536;SDS011;14204;51.262;5.488;2023-04-15T06:57:23;23.30;;;15.13;;
26536;SDS011;14204;51.262;5.488;2023-04-15T06:59:49;22.27;;;14.45;;
26536;SDS011;14204;51.262;5.488;2023-04-15T07:02:16;18.77;;;13.25;;
26536;SDS011;14204;51.262;5.488;2023-04-15T07:04:42;22.50;;;14.77;;
26536;SDS011;14204;51.262;5.488;2023-04-15T07:07:08;21.95;;;14.05;;
26536;SDS011;14204;51.262;5.488;2023-04-15T07:09:33;19.77;;;13.77;;
26536;SDS011;14204;51.262;5.488;2023-04-15T07:11:59;28.30;;;14.88;;
26536;SDS011;14204;51.262;5.488;2023-04-15T07:14:25;20.10;;;14.50;;
26536;SDS011;14204;51.262;5.488;2023-04-15T07:16:50;22.60;;;16.25;;
26536;SDS011;14204;51.262;5.488;2023-04-15T07:19:16;22.90;;;15.65;;
26536;SDS011;14204;51.262;5.488;2023-04-15T07:21:42;19.95;;;14.93;;
26536;SDS011;14204;51.262;5.488;2023-04-15T07:24:07;24.65;;;15.35;;
26536;SDS011;14204;51.262;5.488;2023-04-15T07:26:34;18.92;;;13.27;;
26536;SDS011;14204;51.262;5.488;2023-04-15T07:29:00;21.42;;;14.38;;
26536;SDS011;14204;51.262;5.488;2023-04-15T07:31:25;19.33;;;12.73;;
26536;SDS011;14204;51.262;5.488;2023-04-15T07:33:51;18.73;;;12.75;;
26536;SDS011;14204;51.262;5.488;2023-04-15T07:36:17;18.45;;;13.68;;
26536;SDS011;14204;51.262;5.488;2023-04-15T07:38:43;20.98;;;13.75;;
26536;SDS011;14204;51.262;5.488;2023-04-15T07:41:08;18.23;;;11.98;;
26536;SDS011;14204;51.262;5.488;2023-04-15T07:43:34;16.33;;;11.57;;
26536;SDS011;14204;51.262;5.488;2023-04-15T07:46:00;17.30;;;12.23;;
26536;SDS011;14204;51.262;5.488;2023-04-15T07:48:25;15.43;;;12.10;;
26536;SDS011;14204;51.262;5.488;2023-04-15T07:50:51;16.45;;;11.40;;
26536;SDS011;14204;51.262;5.488;2023-04-15T07:53:17;15.52;;;12.90;;
26536;SDS011;14204;51.262;5.488;2023-04-15T07:55:43;13.82;;;10.88;;
26536;SDS011;14204;51.262;5.488;2023-04-15T07:58:09;14.93;;;11.10;;
26536;SDS011;14204;51.262;5.488;2023-04-15T08:00:35;15.52;;;11.48;;
26536;SDS011;14204;51.262;5.488;2023-04-15T08:03:02;12.30;;;10.38;;
26536;SDS011;14204;51.262;5.488;2023-04-15T08:05:28;12.57;;;10.05;;
26536;SDS011;14204;51.262;5.488;2023-04-15T08:07:53;11.48;;;9.77;;
26536;SDS011;14204;51.262;5.488;2023-04-15T08:10:19;11.82;;;9.95;;
26536;SDS011;14204;51.262;5.488;2023-04-15T08:12:45;14.38;;;10.48;;
26536;SDS011;14204;51.262;5.488;2023-04-15T08:15:13;11.18;;;8.85;;
26536;SDS011;14204;51.262;5.488;2023-04-15T08:17:40;11.25;;;9.30;;
26536;SDS011;14204;51.262;5.488;2023-04-15T08:20:06;11.95;;;8.98;;
26536;SDS011;14204;51.262;5.488;2023-04-15T08:22:32;12.35;;;8.55;;
26536;SDS011;14204;51.262;5.488;2023-04-15T08:24:58;12.65;;;8.40;;
26536;SDS011;14204;51.262;5.488;2023-04-15T08:27:24;11.95;;;8.65;;
26536;SDS011;14204;51.262;5.488;2023-04-15T08:29:49;12.20;;;7.90;;
26536;SDS011;14204;51.262;5.488;2023-04-15T08:32:15;9.98;;;7.78;;
26536;SDS011;14204;51.262;5.488;2023-04-15T08:34:41;10.40;;;7.38;;
26536;SDS011;14204;51.262;5.488;2023-04-15T08:37:06;9.00;;;6.70;;
26536;SDS011;14204;51.262;5.488;2023-04-15T08:39:32;7.70;;;6.93;;
26536;SDS011;14204;51.262;5.488;2023-04-15T08:42:01;8.52;;;6.30;;
26536;SDS011;14204;51.262;5.488;2023-04-15T08:44:32;8.63;;;6.60;;
26536;SDS011;14204;51.262;5.488;2023-04-15T08:47:02;10.52;;;7.22;;
26536;SDS011;14204;51.262;5.488;2023-04-15T08:51:57;12.45;;;7.75;;
26536;SDS011;14204;51.262;5.488;2023-04-15T08:54:24;11.48;;;7.97;;
26536;SDS011;14204;51.262;5.488;2023-04-15T08:56:51;9.75;;;8.13;;
26536;SDS011;14204;51.262;5.488;2023-04-15T08:59:17;9.90;;;7.07;;
26536;SDS011;14204;51.262;5.488;2023-04-15T09:01:45;10.75;;;7.30;;
26536;SDS011;14204;51.262;5.488;2023-04-15T09:04:12;11.68;;;7.55;;
26536;SDS011;14204;51.262;5.488;2023-04-15T09:06:39;9.40;;;6.38;;
26536;SDS011;14204;51.262;5.488;2023-04-15T09:09:05;9.07;;;6.20;;
26536;SDS011;14204;51.262;5.488;2023-04-15T09:11:31;7.47;;;5.03;;
26536;SDS011;14204;51.262;5.488;2023-04-15T09:13:56;6.63;;;5.53;;
26536;SDS011;14204;51.262;5.488;2023-04-15T09:16:22;7.38;;;5.30;;
26536;SDS011;14204;51.262;5.488;2023-04-15T09:18:48;5.70;;;5.07;;
26536;SDS011;14204;51.262;5.488;2023-04-15T09:21:14;6.50;;;5.47;;
26536;SDS011;14204;51.262;5.488;2023-04-15T09:23:53;7.97;;;5.28;;
26536;SDS011;14204;51.262;5.488;2023-04-15T09:26:35;6.82;;;4.85;;
26536;SDS011;14204;51.262;5.488;2023-04-15T09:29:05;6.40;;;4.47;;
26536;SDS011;14204;51.262;5.488;2023-04-15T09:31:32;6.95;;;4.60;;
26536;SDS011;14204;51.262;5.488;2023-04-15T09:33:58;4.90;;;4.07;;
26536;SDS011;14204;51.262;5.488;2023-04-15T09:36:23;7.05;;;4.72;;
26536;SDS011;14204;51.262;5.488;2023-04-15T09:38:59;5.05;;;4.53;;
26536;SDS011;14204;51.262;5.488;2023-04-15T09:41:25;7.70;;;4.55;;
26536;SDS011;14204;51.262;5.488;2023-04-15T09:43:51;5.68;;;4.05;;
26536;SDS011;14204;51.262;5.488;2023-04-15T09:46:17;6.30;;;4.60;;
26536;SDS011;14204;51.262;5.488;2023-04-15T09:48:43;6.85;;;4.57;;
26536;SDS011;14204;51.262;5.488;2023-04-15T09:51:09;5.82;;;4.20;;
26536;SDS011;14204;51.262;5.488;2023-04-15T09:53:35;7.20;;;4.18;;
26536;SDS011;14204;51.262;5.488;2023-04-15T09:56:02;5.20;;;4.25;;
26536;SDS011;14204;51.262;5.488;2023-04-15T09:58:32;4.63;;;4.20;;
26536;SDS011;14204;51.262;5.488;2023-04-15T10:01:07;8.15;;;4.57;;
26536;SDS011;14204;51.262;5.488;2023-04-15T10:03:35;5.88;;;4.35;;
26536;SDS011;14204;51.262;5.488;2023-04-15T10:06:01;4.75;;;3.92;;
26536;SDS011;14204;51.262;5.488;2023-04-15T10:08:29;11.00;;;3.97;;
26536;SDS011;14204;51.262;5.488;2023-04-15T10:10:56;4.75;;;3.55;;
26536;SDS011;14204;51.262;5.488;2023-04-15T10:13:24;6.75;;;3.83;;
26536;SDS011;14204;51.262;5.488;2023-04-15T10:16:14;6.07;;;4.30;;
26536;SDS011;14204;51.262;5.488;2023-04-15T10:18:44;5.90;;;3.78;;
26536;SDS011;14204;51.262;5.488;2023-04-15T10:21:14;3.85;;;3.45;;
26536;SDS011;14204;51.262;5.488;2023-04-15T10:23:43;4.38;;;3.13;;
26536;SDS011;14204;51.262;5.488;2023-04-15T10:26:12;3.20;;;2.80;;
26536;SDS011;14204;51.262;5.488;2023-04-15T10:28:44;5.90;;;3.25;;
26536;SDS011;14204;51.262;5.488;2023-04-15T10:31:14;3.05;;;2.25;;
26536;SDS011;14204;51.262;5.488;2023-04-15T10:33:41;4.68;;;2.38;;
26536;SDS011;14204;51.262;5.488;2023-04-15T10:36:08;4.05;;;3.00;;
26536;SDS011;14204;51.262;5.488;2023-04-15T10:38:43;3.15;;;2.63;;
26536;SDS011;14204;51.262;5.488;2023-04-15T10:41:14;2.67;;;2.47;;
26536;SDS011;14204;51.262;5.488;2023-04-15T10:43:49;3.17;;;2.63;;
26536;SDS011;14204;51.262;5.488;2023-04-15T10:46:20;3.88;;;2.67;;
26536;SDS011;14204;51.262;5.488;2023-04-15T10:48:48;8.00;;;2.97;;
26536;SDS011;14204;51.262;5.488;2023-04-15T10:51:15;3.85;;;2.83;;
26536;SDS011;14204;51.262;5.488;2023-04-15T10:53:41;3.42;;;2.42;;
26536;SDS011;14204;51.262;5.488;2023-04-15T10:56:07;2.22;;;1.85;;
26536;SDS011;14204;51.262;5.488;2023-04-15T10:58:40;2.65;;;2.45;;
26536;SDS011;14204;51.262;5.488;2023-04-15T11:01:07;3.38;;;2.88;;
26536;SDS011;14204;51.262;5.488;2023-04-15T11:03:36;3.45;;;3.15;;
26536;SDS011;14204;51.262;5.488;2023-04-15T11:06:04;3.78;;;3.05;;
26536;SDS011;14204;51.262;5.488;2023-04-15T11:08:52;4.85;;;2.95;;
26536;SDS011;14204;51.262;5.488;2023-04-15T11:11:18;4.97;;;3.30;;
26536;SDS011;14204;51.262;5.488;2023-04-15T11:13:48;6.35;;;2.63;;
26536;SDS011;14204;51.262;5.488;2023-04-15T11:16:15;4.75;;;2.97;;
26536;SDS011;14204;51.262;5.488;2023-04-15T11:18:41;3.65;;;2.92;;
26536;SDS011;14204;51.262;5.488;2023-04-15T11:21:17;5.72;;;4.10;;
26536;SDS011;14204;51.262;5.488;2023-04-15T11:23:43;4.80;;;3.05;;
26536;SDS011;14204;51.262;5.488;2023-04-15T11:26:11;4.20;;;3.80;;
26536;SDS011;14204;51.262;5.488;2023-04-15T11:28:40;4.95;;;3.13;;
26536;SDS011;14204;51.262;5.488;2023-04-15T11:31:08;4.03;;;2.92;;
26536;SDS011;14204;51.262;5.488;2023-04-15T11:33:43;3.58;;;3.03;;
26536;SDS011;14204;51.262;5.488;2023-04-15T11:36:11;6.03;;;3.13;;
26536;SDS011;14204;51.262;5.488;2023-04-15T11:38:36;5.15;;;2.22;;
26536;SDS011;14204;51.262;5.488;2023-04-15T11:41:06;2.38;;;1.85;;
26536;SDS011;14204;51.262;5.488;2023-04-15T11:43:32;2.25;;;1.80;;
26536;SDS011;14204;51.262;5.488;2023-04-15T11:46:00;2.60;;;2.38;;
26536;SDS011;14204;51.262;5.488;2023-04-15T11:48:27;2.92;;;2.10;;
26536;SDS011;14204;51.262;5.488;2023-04-15T11:51:03;2.10;;;1.90;;
26536;SDS011;14204;51.262;5.488;2023-04-15T11:56:06;1.63;;;1.52;;
26536;SDS011;14204;51.262;5.488;2023-04-15T11:58:33;2.08;;;1.40;;
26536;SDS011;14204;51.262;5.488;2023-04-15T12:01:03;1.35;;;1.25;;
26536;SDS011;14204;51.262;5.488;2023-04-15T12:03:42;2.10;;;1.60;;
26536;SDS011;14204;51.262;5.488;2023-04-15T12:06:14;1.73;;;1.60;;
26536;SDS011;14204;51.262;5.488;2023-04-15T12:08:48;1.15;;;1.05;;
26536;SDS011;14204;51.262;5.488;2023-04-15T12:13:55;2.25;;;1.60;;
26536;SDS011;14204;51.262;5.488;2023-04-15T12:16:21;2.05;;;1.95;;
26536;SDS011;14204;51.262;5.488;2023-04-15T12:18:51;1.92;;;1.80;;
26536;SDS011;14204;51.262;5.488;2023-04-15T12:21:20;4.00;;;2.40;;
26536;SDS011;14204;51.262;5.488;2023-04-15T12:26:17;3.47;;;2.50;;
26536;SDS011;14204;51.262;5.488;2023-04-15T12:28:52;2.85;;;2.65;;
26536;SDS011;14204;51.262;5.488;2023-04-15T12:31:19;8.50;;;3.03;;
26536;SDS011;14204;51.262;5.488;2023-04-15T12:33:47;3.00;;;2.70;;
26536;SDS011;14204;51.262;5.488;2023-04-15T12:36:13;2.70;;;2.45;;
26536;SDS011;14204;51.262;5.488;2023-04-15T12:38:38;3.58;;;2.50;;
26536;SDS011;14204;51.262;5.488;2023-04-15T12:41:04;3.83;;;2.47;;
26536;SDS011;14204;51.262;5.488;2023-04-15T12:43:30;3.05;;;2.47;;
26536;SDS011;14204;51.262;5.488;2023-04-15T12:45:56;2.22;;;2.03;;
26536;SDS011;14204;51.262;5.488;2023-04-15T12:48:21;5.00;;;2.38;;
26536;SDS011;14204;51.262;5.488;2023-04-15T12:50:47;4.03;;;2.33;;
26536;SDS011;14204;51.262;5.488;2023-04-15T12:53:12;7.18;;;2.88;;
26536;SDS011;14204;51.262;5.488;2023-04-15T12:55:38;2.78;;;2.33;;
26536;SDS011;14204;51.262;5.488;2023-04-15T12:58:04;3.75;;;2.40;;
26536;SDS011;14204;51.262;5.488;2023-04-15T13:00:29;4.95;;;2.00;;
26536;SDS011;14204;51.262;5.488;2023-04-15T13:02:58;1.42;;;1.33;;
26536;SDS011;14204;51.262;5.488;2023-04-15T13:05:24;3.75;;;2.10;;
26536;SDS011;14204;51.262;5.488;2023-04-15T13:07:50;14.18;;;2.95;;
26536;SDS011;14204;51.262;5.488;2023-04-15T13:10:15;2.13;;;1.92;;
26536;SDS011;14204;51.262;5.488;2023-04-15T13:12:41;3.17;;;2.15;;
26536;SDS011;14204;51.262;5.488;2023-04-15T13:15:07;7.10;;;2.22;;
26536;SDS011;14204;51.262;5.488;2023-04-15T13:17:35;2.58;;;1.90;;
26536;SDS011;14204;51.262;5.488;2023-04-15T13:20:01;2.55;;;1.85;;
26536;SDS011;14204;51.262;5.488;2023-04-15T13:22:26;3.45;;;2.10;;
26536;SDS011;14204;51.262;5.488;2023-04-15T13:24:52;2.40;;;2.20;;
26536;SDS011;14204;51.262;5.488;2023-04-15T13:27:17;3.15;;;2.63;;
26536;SDS011;14204;51.262;5.488;2023-04-15T13:29:43;2.42;;;2.17;;
26536;SDS011;14204;51.262;5.488;2023-04-15T13:32:09;4.07;;;2.50;;
26536;SDS011;14204;51.262;5.488;2023-04-15T13:34:34;6.57;;;2.67;;
26536;SDS011;14204;51.262;5.488;2023-04-15T13:37:06;2.90;;;2.60;;
26536;SDS011;14204;51.262;5.488;2023-04-15T13:39:33;4.38;;;2.38;;
26536;SDS011;14204;51.262;5.488;2023-04-15T13:41:59;2.20;;;1.77;;
26536;SDS011;14204;51.262;5.488;2023-04-15T13:44:25;2.30;;;2.00;;
26536;SDS011;14204;51.262;5.488;2023-04-15T13:46:50;5.20;;;2.50;;
26536;SDS011;14204;51.262;5.488;2023-04-15T13:49:16;2.67;;;2.33;;
26536;SDS011;14204;51.262;5.488;2023-04-15T13:51:42;13.73;;;2.90;;
26536;SDS011;14204;51.262;5.488;2023-04-15T13:54:08;10.25;;;2.40;;
26536;SDS011;14204;51.262;5.488;2023-04-15T13:56:33;7.95;;;2.30;;
26536;SDS011;14204;51.262;5.488;2023-04-15T13:58:59;2.60;;;2.40;;
26536;SDS011;14204;51.262;5.488;2023-04-15T14:01:26;4.18;;;2.20;;
26536;SDS011;14204;51.262;5.488;2023-04-15T14:03:52;3.03;;;1.85;;
26536;SDS011;14204;51.262;5.488;2023-04-15T14:06:18;3.42;;;2.30;;
26536;SDS011;14204;51.262;5.488;2023-04-15T14:08:44;4.25;;;2.42;;
26536;SDS011;14204;51.262;5.488;2023-04-15T14:11:10;2.13;;;1.63;;
26536;SDS011;14204;51.262;5.488;2023-04-15T14:13:36;2.42;;;1.92;;
26536;SDS011;14204;51.262;5.488;2023-04-15T14:16:01;3.70;;;1.60;;
26536;SDS011;14204;51.262;5.488;2023-04-15T14:18:27;1.58;;;1.48;;
26536;SDS011;14204;51.262;5.488;2023-04-15T14:20:54;4.78;;;2.03;;
26536;SDS011;14204;51.262;5.488;2023-04-15T14:23:20;2.10;;;1.60;;
26536;SDS011;14204;51.262;5.488;2023-04-15T14:25:46;3.92;;;1.40;;
26536;SDS011;14204;51.262;5.488;2023-04-15T14:28:11;4.38;;;1.73;;
26536;SDS011;14204;51.262;5.488;2023-04-15T14:30:37;1.45;;;1.35;;
26536;SDS011;14204;51.262;5.488;2023-04-15T14:33:03;7.05;;;1.80;;
26536;SDS011;14204;51.262;5.488;2023-04-15T14:35:28;5.32;;;2.10;;
26536;SDS011;14204;51.262;5.488;2023-04-15T14:37:55;1.50;;;1.30;;
26536;SDS011;14204;51.262;5.488;2023-04-15T14:40:21;2.90;;;1.52;;
26536;SDS011;14204;51.262;5.488;2023-04-15T14:42:46;3.50;;;1.65;;
26536;SDS011;14204;51.262;5.488;2023-04-15T14:45:12;3.28;;;1.95;;